Time;durP1;ratioP1;P1;durP2;ratioP2;P2;SDS_P1;SDS_P2;PMS_P1;PMS_P2;Temp;Humidity;BMP_temperature;BMP_pressure;BME280_temperature;BME280_humidity;BME280_pressure;Samples;Min_cycle;Max_cycle;Signal;HPM_P1;HPM_P2
2022/01/11 00:02:03;;;;;;;5.43;2.22;;;;;;;;;;5092388;28;20043;-77
2022/01/11 00:04:30;;;;;;;4.03;1.65;;;;;;;;;;5111138;28;20484;-77
2022/01/11 00:06:58;;;;;;;4.50;2.00;;;;;;;;;;5111354;28;20487;-77
2022/01/11 00:09:39;;;;;;;3.67;1.52;;;;;;;;;;5092807;28;20103;-77
2022/01/11 00:12:08;;;;;;;3.58;1.55;;;;;;;;;;5111415;28;20043;-78
2022/01/11 00:14:34;;;;;;;4.40;1.67;;;;;;;;;;5111034;28;20026;-76
2022/01/11 00:17:00;;;;;;;3.95;2.10;;;;;;;;;;5111206;28;20032;-78
2022/01/11 00:19:28;;;;;;;3.17;1.60;;;;;;;;;;5111190;28;20020;-78
2022/01/11 00:21:54;;;;;;;3.17;1.52;;;;;;;;;;5111136;28;20028;-77
2022/01/11 00:24:30;;;;;;;3.80;1.67;;;;;;;;;;5111021;28;20024;-77
2022/01/11 00:27:04;;;;;;;5.30;1.80;;;;;;;;;;5111220;28;20069;-77
2022/01/11 00:29:31;;;;;;;4.53;1.60;;;;;;;;;;5110691;28;20468;-77
2022/01/11 00:32:02;;;;;;;3.55;1.73;;;;;;;;;;5111007;28;20020;-77
2022/01/11 00:34:38;;;;;;;4.97;1.92;;;;;;;;;;5110895;28;20020;-77
2022/01/11 00:37:04;;;;;;;3.92;1.80;;;;;;;;;;5092729;28;20024;-77
2022/01/11 00:39:30;;;;;;;3.75;1.63;;;;;;;;;;5110987;28;20065;-77
2022/01/11 00:41:56;;;;;;;4.53;1.77;;;;;;;;;;5111265;28;20031;-77
2022/01/11 00:44:23;;;;;;;3.25;1.23;;;;;;;;;;5110711;28;20071;-77
2022/01/11 00:46:49;;;;;;;3.15;1.60;;;;;;;;;;5111034;28;20028;-77
2022/01/11 00:49:16;;;;;;;5.40;1.83;;;;;;;;;;5092528;28;20515;-77
2022/01/11 00:51:42;;;;;;;3.63;1.50;;;;;;;;;;5111112;28;20166;-76
2022/01/11 00:54:08;;;;;;;3.45;1.60;;;;;;;;;;5111265;28;20055;-77
2022/01/11 00:56:34;;;;;;;4.43;1.70;;;;;;;;;;5114679;28;20118;-77
2022/01/11 00:59:00;;;;;;;4.45;1.60;;;;;;;;;;5114726;28;20019;-78
2022/01/11 01:01:27;;;;;;;3.55;1.45;;;;;;;;;;5114373;28;20027;-76
2022/01/11 01:03:53;;;;;;;3.65;1.50;;;;;;;;;;5096447;28;20030;-76
2022/01/11 01:06:19;;;;;;;4.18;1.65;;;;;;;;;;5114358;28;20047;-77
2022/01/11 01:08:45;;;;;;;4.32;1.45;;;;;;;;;;5114936;28;20031;-78
2022/01/11 01:11:11;;;;;;;4.70;1.60;;;;;;;;;;5096160;28;20062;-77
2022/01/11 01:13:38;;;;;;;4.00;1.33;;;;;;;;;;5114356;28;20023;-77
2022/01/11 01:16:04;;;;;;;3.90;1.50;;;;;;;;;;5114362;28;20110;-77
2022/01/11 01:18:32;;;;;;;3.63;1.55;;;;;;;;;;5114119;28;20068;-77
2022/01/11 01:20:59;;;;;;;4.60;1.58;;;;;;;;;;5114421;28;20056;-76
2022/01/11 01:23:26;;;;;;;3.65;1.38;;;;;;;;;;5113842;28;20479;-78
2022/01/11 01:25:52;;;;;;;3.35;1.58;;;;;;;;;;5114212;28;20028;-77
2022/01/11 01:28:18;;;;;;;4.43;1.40;;;;;;;;;;5114027;28;20023;-77
2022/01/11 01:30:44;;;;;;;5.85;1.88;;;;;;;;;;5114391;28;20165;-78
2022/01/11 01:33:10;;;;;;;5.15;1.80;;;;;;;;;;5114071;28;20430;-78
2022/01/11 01:35:41;;;;;;;3.72;2.03;;;;;;;;;;5113647;28;20042;-76
2022/01/11 01:38:08;;;;;;;4.10;1.80;;;;;;;;;;5095690;28;20059;-76
2022/01/11 01:40:39;;;;;;;3.45;1.50;;;;;;;;;;5113646;28;20027;-76
2022/01/11 01:43:08;;;;;;;4.32;1.77;;;;;;;;;;5095540;28;20509;-76
2022/01/11 01:45:34;;;;;;;3.38;1.75;;;;;;;;;;5095435;28;20071;-78
2022/01/11 01:48:02;;;;;;;3.78;1.90;;;;;;;;;;5095726;28;20043;-76
2022/01/11 01:50:29;;;;;;;2.83;1.33;;;;;;;;;;5113445;28;20039;-77
2022/01/11 01:52:57;;;;;;;3.00;1.38;;;;;;;;;;5113821;28;20035;-77
2022/01/11 01:55:23;;;;;;;3.63;1.80;;;;;;;;;;5113390;28;20107;-77
2022/01/11 01:57:50;;;;;;;3.97;1.20;;;;;;;;;;5095237;28;20027;-78
2022/01/11 02:00:16;;;;;;;2.75;1.42;;;;;;;;;;5113842;28;20028;-78
2022/01/11 02:02:42;;;;;;;2.65;1.25;;;;;;;;;;5113872;28;20113;-76
2022/01/11 02:05:09;;;;;;;4.15;1.38;;;;;;;;;;5113355;28;20106;-77
2022/01/11 02:07:35;;;;;;;3.97;1.58;;;;;;;;;;5113210;28;20026;-77
2022/01/11 02:10:01;;;;;;;3.97;1.52;;;;;;;;;;5113447;28;20027;-78
2022/01/11 02:12:30;;;;;;;3.05;1.23;;;;;;;;;;5112875;28;20031;-77
2022/01/11 02:14:56;;;;;;;3.25;1.20;;;;;;;;;;5113117;28;20306;-77
2022/01/11 02:17:22;;;;;;;6.15;1.60;;;;;;;;;;5112977;28;20027;-77
2022/01/11 02:19:48;;;;;;;5.03;1.80;;;;;;;;;;5113149;28;20051;-77
2022/01/11 02:22:14;;;;;;;2.83;1.30;;;;;;;;;;5113233;28;20023;-77
2022/01/11 02:24:40;;;;;;;3.47;1.35;;;;;;;;;;5112802;28;20028;-77
2022/01/11 02:27:06;;;;;;;3.50;1.20;;;;;;;;;;5112893;28;20031;-77
2022/01/11 02:29:32;;;;;;;3.28;1.50;;;;;;;;;;5112785;28;20012;-78
2022/01/11 02:31:58;;;;;;;3.33;1.30;;;;;;;;;;5112990;28;20103;-78
2022/01/11 02:34:24;;;;;;;2.42;1.05;;;;;;;;;;5112793;28;20103;-76
2022/01/11 02:36:50;;;;;;;2.20;1.20;;;;;;;;;;5112666;28;20119;-76
2022/01/11 02:39:16;;;;;;;2.63;1.27;;;;;;;;;;5113027;28;20031;-76
2022/01/11 02:41:53;;;;;;;3.15;1.95;;;;;;;;;;5112994;28;20572;-77
2022/01/11 02:44:20;;;;;;;3.28;1.52;;;;;;;;;;5112191;28;20036;-77
2022/01/11 02:46:46;;;;;;;3.05;1.33;;;;;;;;;;5112885;28;20024;-76
2022/01/11 02:49:12;;;;;;;3.10;1.33;;;;;;;;;;5112571;28;20047;-77
2022/01/11 02:51:38;;;;;;;4.38;1.60;;;;;;;;;;5112234;28;20076;-76
2022/01/11 02:54:05;;;;;;;2.30;1.00;;;;;;;;;;5112403;28;20020;-75
2022/01/11 02:56:31;;;;;;;3.10;1.27;;;;;;;;;;5093700;28;20050;-77
2022/01/11 02:58:58;;;;;;;3.72;1.50;;;;;;;;;;5112424;28;20471;-76
2022/01/11 03:01:24;;;;;;;1.85;1.10;;;;;;;;;;5112067;28;20102;-76
2022/01/11 03:03:51;;;;;;;3.60;1.20;;;;;;;;;;5112334;28;20027;-76
2022/01/11 03:06:17;;;;;;;5.22;2.00;;;;;;;;;;5112252;28;20028;-76
2022/01/11 03:08:44;;;;;;;3.80;1.58;;;;;;;;;;5112471;28;20053;-76
2022/01/11 03:11:11;;;;;;;3.20;1.05;;;;;;;;;;5112162;28;20068;-76
2022/01/11 03:13:39;;;;;;;4.32;1.90;;;;;;;;;;5111924;28;20225;-76
2022/01/11 03:16:05;;;;;;;3.97;1.15;;;;;;;;;;5112035;28;20050;-77
2022/01/11 03:18:32;;;;;;;3.10;1.60;;;;;;;;;;5111370;28;20030;-76
2022/01/11 03:20:58;;;;;;;2.42;1.23;;;;;;;;;;5111940;28;20121;-77
2022/01/11 03:23:24;;;;;;;2.95;1.50;;;;;;;;;;5111751;28;20034;-78
2022/01/11 03:25:51;;;;;;;2.95;1.38;;;;;;;;;;5111925;28;20103;-77
2022/01/11 03:28:18;;;;;;;4.57;1.50;;;;;;;;;;5111667;28;20111;-76
2022/01/11 03:30:44;;;;;;;3.53;1.33;;;;;;;;;;5112241;28;20020;-77
2022/01/11 03:33:11;;;;;;;3.22;1.30;;;;;;;;;;5111859;28;20023;-78
2022/01/11 03:35:38;;;;;;;3.53;1.42;;;;;;;;;;5093135;28;20043;-77
2022/01/11 03:38:05;;;;;;;2.70;1.17;;;;;;;;;;5111804;28;20066;-77
2022/01/11 03:40:31;;;;;;;4.78;1.23;;;;;;;;;;5111436;28;20027;-76
2022/01/11 03:42:57;;;;;;;3.80;1.25;;;;;;;;;;5111645;28;20092;-76
2022/01/11 03:45:24;;;;;;;2.63;1.15;;;;;;;;;;5111375;28;20042;-77
2022/01/11 03:47:51;;;;;;;5.40;1.35;;;;;;;;;;5111857;28;20143;-77
2022/01/11 03:50:18;;;;;;;3.28;1.38;;;;;;;;;;5111634;28;20027;-77
2022/01/11 03:52:45;;;;;;;2.58;1.13;;;;;;;;;;5093616;28;20383;-77
2022/01/11 03:55:15;;;;;;;2.55;1.33;;;;;;;;;;5111562;28;20031;-78
2022/01/11 03:57:41;;;;;;;3.22;1.25;;;;;;;;;;5111279;28;20063;-77
2022/01/11 04:00:09;;;;;;;2.63;1.55;;;;;;;;;;5111576;28;20108;-77
2022/01/11 04:02:35;;;;;;;2.47;1.58;;;;;;;;;;5111102;28;20023;-77
2022/01/11 04:05:02;;;;;;;2.90;1.20;;;;;;;;;;5093193;28;20027;-77
2022/01/11 04:07:28;;;;;;;3.42;1.75;;;;;;;;;;5111352;28;20039;-77
2022/01/11 04:09:56;;;;;;;4.22;1.50;;;;;;;;;;5111305;28;20062;-77
2022/01/11 04:12:22;;;;;;;2.72;1.50;;;;;;;;;;5111286;28;20096;-77
2022/01/11 04:14:49;;;;;;;2.47;1.48;;;;;;;;;;5111415;28;20062;-78
2022/01/11 04:17:15;;;;;;;4.00;1.85;;;;;;;;;;5093513;28;20059;-78
2022/01/11 04:19:41;;;;;;;3.15;1.77;;;;;;;;;;5111133;28;20028;-78
2022/01/11 04:22:07;;;;;;;2.50;1.30;;;;;;;;;;5111338;28;20027;-77
2022/01/11 04:24:33;;;;;;;4.47;1.70;;;;;;;;;;5111114;28;20026;-78
2022/01/11 04:26:59;;;;;;;3.13;1.73;;;;;;;;;;5111173;28;20015;-77
2022/01/11 04:29:25;;;;;;;3.20;1.20;;;;;;;;;;5111957;28;20505;-77
2022/01/11 04:31:51;;;;;;;3.33;1.35;;;;;;;;;;5115380;28;20483;-77
2022/01/11 04:34:18;;;;;;;3.90;1.63;;;;;;;;;;5096575;28;20509;-77
2022/01/11 04:36:44;;;;;;;5.72;2.20;;;;;;;;;;5115454;28;20080;-77
2022/01/11 04:39:12;;;;;;;2.90;1.58;;;;;;;;;;5115189;28;20046;-77
2022/01/11 04:41:38;;;;;;;3.78;1.88;;;;;;;;;;5114917;28;20035;-77
2022/01/11 04:44:05;;;;;;;3.17;1.48;;;;;;;;;;5114863;28;20521;-77
2022/01/11 04:46:31;;;;;;;3.97;1.70;;;;;;;;;;5096322;28;20031;-77
2022/01/11 04:48:59;;;;;;;4.63;1.85;;;;;;;;;;5114954;28;20353;-76
2022/01/11 04:51:25;;;;;;;3.60;1.73;;;;;;;;;;5114477;28;20119;-77
2022/01/11 04:53:51;;;;;;;5.03;1.90;;;;;;;;;;5114977;28;20020;-78
2022/01/11 04:56:17;;;;;;;5.20;1.92;;;;;;;;;;5114428;28;20479;-76
2022/01/11 04:58:44;;;;;;;3.53;1.90;;;;;;;;;;5115029;28;20020;-77
2022/01/11 05:01:10;;;;;;;4.60;1.63;;;;;;;;;;5114686;28;20499;-78
2022/01/11 05:03:36;;;;;;;3.63;1.98;;;;;;;;;;5114572;28;20031;-77
2022/01/11 05:06:04;;;;;;;3.92;1.92;;;;;;;;;;5114348;28;20364;-77
2022/01/11 05:08:30;;;;;;;4.15;2.25;;;;;;;;;;5114290;28;20559;-77
2022/01/11 05:10:56;;;;;;;6.30;2.05;;;;;;;;;;5114461;28;20031;-78
2022/01/11 05:13:22;;;;;;;3.35;1.92;;;;;;;;;;5114254;28;20020;-77
2022/01/11 05:15:48;;;;;;;4.65;2.17;;;;;;;;;;5114361;28;20035;-78
2022/01/11 05:18:14;;;;;;;3.83;2.00;;;;;;;;;;5114824;28;20493;-79
2022/01/11 05:20:41;;;;;;;4.13;2.38;;;;;;;;;;5095661;28;20019;-79
2022/01/11 05:23:08;;;;;;;3.83;2.10;;;;;;;;;;5114319;28;20032;-79
2022/01/11 05:25:34;;;;;;;5.70;2.55;;;;;;;;;;5114125;28;20024;-78
2022/01/11 05:28:00;;;;;;;3.17;2.08;;;;;;;;;;5114136;28;20095;-78
2022/01/11 05:30:27;;;;;;;4.78;2.50;;;;;;;;;;5095482;28;20162;-78
2022/01/11 05:32:53;;;;;;;4.78;2.50;;;;;;;;;;5114126;28;20471;-78
2022/01/11 05:35:20;;;;;;;3.60;2.33;;;;;;;;;;5113579;28;20471;-78
2022/01/11 05:37:46;;;;;;;3.70;2.20;;;;;;;;;;5114252;28;20027;-78
2022/01/11 05:40:13;;;;;;;4.22;2.53;;;;;;;;;;5113647;28;20034;-78
2022/01/11 05:42:39;;;;;;;5.10;2.80;;;;;;;;;;5113666;28;20026;-77
2022/01/11 05:45:07;;;;;;;5.28;2.47;;;;;;;;;;5113548;28;20089;-78
2022/01/11 05:47:33;;;;;;;4.32;2.53;;;;;;;;;;5113525;28;20024;-77
2022/01/11 05:50:00;;;;;;;4.32;2.42;;;;;;;;;;5095309;28;20030;-77
2022/01/11 05:52:26;;;;;;;5.03;2.75;;;;;;;;;;5095254;28;20114;-78
2022/01/11 05:54:52;;;;;;;5.20;3.05;;;;;;;;;;5113490;28;20435;-77
2022/01/11 05:57:18;;;;;;;4.53;2.50;;;;;;;;;;5112911;28;20121;-78
2022/01/11 05:59:44;;;;;;;5.85;3.45;;;;;;;;;;5113734;28;20087;-79
2022/01/11 06:02:10;;;;;;;6.00;2.88;;;;;;;;;;5113320;28;20035;-76
2022/01/11 06:04:36;;;;;;;5.25;2.72;;;;;;;;;;5113213;28;20024;-77
2022/01/11 06:07:02;;;;;;;4.50;2.75;;;;;;;;;;5113264;28;20019;-77
2022/01/11 06:09:28;;;;;;;4.72;2.58;;;;;;;;;;5113228;28;20109;-77
2022/01/11 06:11:55;;;;;;;5.38;3.63;;;;;;;;;;5113137;28;20020;-78
2022/01/11 06:14:21;;;;;;;5.35;2.97;;;;;;;;;;5113190;28;20024;-77
2022/01/11 06:16:47;;;;;;;4.80;3.20;;;;;;;;;;5094615;28;20422;-76
2022/01/11 06:19:13;;;;;;;4.05;2.55;;;;;;;;;;5095029;28;20022;-76
2022/01/11 06:21:40;;;;;;;6.50;3.10;;;;;;;;;;5112660;28;20028;-78
2022/01/11 06:24:07;;;;;;;6.13;2.70;;;;;;;;;;5094899;28;20020;-77
2022/01/11 06:26:33;;;;;;;5.75;3.08;;;;;;;;;;5112510;28;20080;-77
2022/01/11 06:29:01;;;;;;;4.93;3.10;;;;;;;;;;5112905;28;20042;-77
2022/01/11 06:31:27;;;;;;;6.95;3.80;;;;;;;;;;5112596;28;20065;-78
2022/01/11 06:33:53;;;;;;;6.00;3.33;;;;;;;;;;5112839;28;20026;-77
2022/01/11 06:36:20;;;;;;;5.85;3.25;;;;;;;;;;5112440;28;20578;-77
2022/01/11 06:38:46;;;;;;;5.50;3.05;;;;;;;;;;5094566;28;20015;-77
2022/01/11 06:41:12;;;;;;;6.18;3.70;;;;;;;;;;5094437;28;20169;-77
2022/01/11 06:43:38;;;;;;;5.10;3.53;;;;;;;;;;5112219;28;20028;-76
2022/01/11 06:46:05;;;;;;;5.32;3.42;;;;;;;;;;5112528;28;20052;-77
2022/01/11 06:48:32;;;;;;;5.07;3.05;;;;;;;;;;5112204;28;20012;-77
2022/01/11 06:50:58;;;;;;;7.20;3.78;;;;;;;;;;5112388;28;20364;-76
2022/01/11 06:53:24;;;;;;;7.07;3.10;;;;;;;;;;5111363;28;20498;-77
2022/01/11 06:55:50;;;;;;;6.82;3.55;;;;;;;;;;5093872;28;20043;-77
2022/01/11 06:58:17;;;;;;;6.00;3.45;;;;;;;;;;5094324;28;20085;-76
2022/01/11 07:00:43;;;;;;;4.55;3.17;;;;;;;;;;5112410;28;20023;-77
2022/01/11 07:03:09;;;;;;;6.43;3.83;;;;;;;;;;5112198;28;20023;-77
2022/01/11 07:05:35;;;;;;;4.53;2.83;;;;;;;;;;5111816;28;20057;-76
2022/01/11 07:08:01;;;;;;;6.78;3.70;;;;;;;;;;5111942;28;20019;-77
2022/01/11 07:10:27;;;;;;;7.30;4.45;;;;;;;;;;5111852;28;20544;-77
2022/01/11 07:12:55;;;;;;;6.25;3.15;;;;;;;;;;5112098;28;20024;-77
2022/01/11 07:15:21;;;;;;;5.65;3.35;;;;;;;;;;5093263;28;20056;-79
2022/01/11 07:17:48;;;;;;;4.85;3.33;;;;;;;;;;5112180;28;20059;-77
2022/01/11 07:20:14;;;;;;;5.78;3.50;;;;;;;;;;5112233;28;20076;-76
2022/01/11 07:22:40;;;;;;;5.65;3.50;;;;;;;;;;5111062;28;20023;-77
2022/01/11 07:25:06;;;;;;;5.32;3.63;;;;;;;;;;5110237;28;20031;-78
2022/01/11 07:27:34;;;;;;;5.10;3.15;;;;;;;;;;5110883;28;20032;-79
2022/01/11 07:30:00;;;;;;;5.78;3.72;;;;;;;;;;5111872;28;20030;-79
2022/01/11 07:32:26;;;;;;;6.50;3.58;;;;;;;;;;5111649;28;20387;-78
2022/01/11 07:34:52;;;;;;;6.15;3.92;;;;;;;;;;5110560;28;20490;-76
2022/01/11 07:37:18;;;;;;;5.13;3.33;;;;;;;;;;5110418;28;20499;-78
2022/01/11 07:39:44;;;;;;;8.93;4.40;;;;;;;;;;5111989;28;20065;-79
2022/01/11 07:42:10;;;;;;;4.93;3.60;;;;;;;;;;5110365;28;20023;-78
2022/01/11 07:44:36;;;;;;;6.85;4.40;;;;;;;;;;5107129;28;20055;-78
2022/01/11 07:47:04;;;;;;;6.20;4.15;;;;;;;;;;5111301;28;20073;-77
2022/01/11 07:49:30;;;;;;;7.28;4.25;;;;;;;;;;5111288;28;20042;-78
2022/01/11 07:51:56;;;;;;;5.90;3.90;;;;;;;;;;5111537;28;20024;-78
2022/01/11 07:54:22;;;;;;;7.13;4.43;;;;;;;;;;5111339;28;20032;-77
2022/01/11 07:56:48;;;;;;;5.75;3.75;;;;;;;;;;5111307;28;20471;-77
2022/01/11 07:59:14;;;;;;;7.18;4.00;;;;;;;;;;5109993;28;20069;-77
2022/01/11 08:01:41;;;;;;;5.82;3.30;;;;;;;;;;5092048;28;20019;-78
2022/01/11 08:04:07;;;;;;;7.55;5.15;;;;;;;;;;5113739;28;20035;-78
2022/01/11 08:06:33;;;;;;;7.45;4.28;;;;;;;;;;5114757;28;20019;-77
2022/01/11 08:09:00;;;;;;;6.55;4.15;;;;;;;;;;5096313;28;20022;-78
2022/01/11 08:11:26;;;;;;;7.28;4.88;;;;;;;;;;5115909;28;20383;-81
2022/01/11 08:13:52;;;;;;;8.32;5.20;;;;;;;;;;5115665;28;20028;-80
2022/01/11 08:16:18;;;;;;;9.77;4.97;;;;;;;;;;5115474;28;20131;-81
2022/01/11 08:18:44;;;;;;;7.22;5.07;;;;;;;;;;5115990;28;20020;-83
2022/01/11 08:21:10;;;;;;;7.80;4.85;;;;;;;;;;5115335;28;20035;-84
2022/01/11 08:23:36;;;;;;;7.80;4.88;;;;;;;;;;5115263;28;20020;-84
2022/01/11 08:26:02;;;;;;;6.55;4.75;;;;;;;;;;5096956;28;20038;-82
2022/01/11 08:28:29;;;;;;;7.13;4.43;;;;;;;;;;5115008;28;20016;-83
2022/01/11 08:30:57;;;;;;;7.80;4.57;;;;;;;;;;5115716;28;20499;-83
2022/01/11 08:33:23;;;;;;;8.20;4.25;;;;;;;;;;5114840;28;20016;-83
2022/01/11 08:35:49;;;;;;;8.35;4.60;;;;;;;;;;5096846;28;20087;-83
2022/01/11 08:38:15;;;;;;;7.75;4.75;;;;;;;;;;5115465;28;20023;-80
2022/01/11 08:40:41;;;;;;;8.70;4.35;;;;;;;;;;5115047;28;20102;-85
2022/01/11 08:43:07;;;;;;;8.15;4.43;;;;;;;;;;5115146;28;20031;-84
2022/01/11 08:45:34;;;;;;;8.20;4.50;;;;;;;;;;5115388;28;20106;-87
2022/01/11 08:48:00;;;;;;;7.88;4.57;;;;;;;;;;5098667;28;20027;-85
2022/01/11 08:50:26;;;;;;;9.55;5.05;;;;;;;;;;5115456;28;20520;-85
2022/01/11 08:52:53;;;;;;;11.00;5.30;;;;;;;;;;5115033;28;20031;-80
2022/01/11 08:55:19;;;;;;;7.68;4.40;;;;;;;;;;5114945;28;20031;-84
2022/01/11 08:57:45;;;;;;;8.43;5.20;;;;;;;;;;5115585;28;20079;-83
2022/01/11 09:00:16;;;;;;;6.20;4.35;;;;;;;;;;5114968;28;20051;-83
2022/01/11 09:02:43;;;;;;;8.32;5.00;;;;;;;;;;5115812;28;20020;-80
2022/01/11 09:05:09;;;;;;;7.68;5.13;;;;;;;;;;5115031;28;20067;-79
2022/01/11 09:07:35;;;;;;;9.20;5.47;;;;;;;;;;5114675;28;20073;-81
2022/01/11 09:10:01;;;;;;;9.32;5.32;;;;;;;;;;5096399;28;20027;-78
2022/01/11 09:12:27;;;;;;;7.00;4.85;;;;;;;;;;5114347;28;20475;-79
2022/01/11 09:14:53;;;;;;;7.70;5.25;;;;;;;;;;5113733;28;20028;-80
2022/01/11 09:17:20;;;;;;;8.52;5.30;;;;;;;;;;5114163;28;20035;-79
2022/01/11 09:19:46;;;;;;;5.70;4.60;;;;;;;;;;5114825;28;20020;-78
2022/01/11 09:22:12;;;;;;;7.57;4.88;;;;;;;;;;5114395;28;20387;-80
2022/01/11 09:24:38;;;;;;;7.97;5.10;;;;;;;;;;5114577;28;20020;-79
2022/01/11 09:27:04;;;;;;;6.82;4.93;;;;;;;;;;5114558;28;20612;-77
2022/01/11 09:29:36;;;;;;;10.82;5.43;;;;;;;;;;5114027;28;20024;-80
2022/01/11 09:32:03;;;;;;;8.55;5.53;;;;;;;;;;5114232;28;20058;-80
2022/01/11 09:34:29;;;;;;;9.23;6.10;;;;;;;;;;5095610;28;20032;-80
2022/01/11 09:36:55;;;;;;;8.43;5.50;;;;;;;;;;5113982;28;20038;-81
2022/01/11 09:39:21;;;;;;;8.32;5.30;;;;;;;;;;5113855;28;20031;-80
2022/01/11 09:41:47;;;;;;;8.35;6.20;;;;;;;;;;5114056;28;20023;-78
2022/01/11 09:44:14;;;;;;;8.23;5.80;;;;;;;;;;5113924;28;20377;-79
2022/01/11 09:46:40;;;;;;;8.85;6.13;;;;;;;;;;5095416;28;20027;-80
2022/01/11 09:49:06;;;;;;;9.98;6.43;;;;;;;;;;5113843;28;20028;-81
2022/01/11 09:51:33;;;;;;;9.57;5.72;;;;;;;;;;5113637;28;20027;-84
2022/01/11 09:53:59;;;;;;;9.63;6.35;;;;;;;;;;5113840;28;20065;-87
2022/01/11 09:56:25;;;;;;;11.45;5.60;;;;;;;;;;5113520;28;20063;-84
2022/01/11 09:58:51;;;;;;;9.80;6.53;;;;;;;;;;5113695;28;20479;-81
2022/01/11 10:01:17;;;;;;;11.57;6.57;;;;;;;;;;5113823;28;20058;-79
2022/01/11 10:04:01;;;;;;;11.25;6.38;;;;;;;;;;5113858;28;20020;-76
2022/01/11 10:06:28;;;;;;;10.13;5.95;;;;;;;;;;5113303;28;20027;-74
2022/01/11 10:09:12;;;;;;;11.50;6.45;;;;;;;;;;5113404;28;20023;-78
2022/01/11 10:11:40;;;;;;;9.77;6.53;;;;;;;;;;5095131;28;20020;-80
2022/01/11 10:14:20;;;;;;;12.82;7.55;;;;;;;;;;5113421;28;20028;-82
2022/01/11 10:16:46;;;;;;;13.70;6.68;;;;;;;;;;5113574;28;20107;-83
2022/01/11 10:19:22;;;;;;;10.07;6.95;;;;;;;;;;5113518;28;20515;-77
2022/01/11 10:21:50;;;;;;;14.00;6.13;;;;;;;;;;5113090;28;20031;-78
2022/01/11 10:24:32;;;;;;;10.98;7.15;;;;;;;;;;5095494;28;20047;-79
2022/01/11 10:26:58;;;;;;;11.20;7.00;;;;;;;;;;5093746;28;20015;-77
2022/01/11 10:29:26;;;;;;;13.05;6.68;;;;;;;;;;5112892;28;20034;-76
2022/01/11 10:31:52;;;;;;;14.18;7.20;;;;;;;;;;5113166;28;20051;-77
2022/01/11 10:34:25;;;;;;;13.73;8.32;;;;;;;;;;5112508;28;20023;-77
2022/01/11 10:36:51;;;;;;;16.02;6.70;;;;;;;;;;5112778;28;20031;-77
2022/01/11 10:39:32;;;;;;;10.15;6.60;;;;;;;;;;5112513;28;20024;-76
2022/01/11 10:41:59;;;;;;;11.20;6.95;;;;;;;;;;5112774;28;20028;-76
2022/01/11 10:44:43;;;;;;;11.57;7.10;;;;;;;;;;5112336;28;20050;-77
2022/01/11 10:47:09;;;;;;;12.70;8.30;;;;;;;;;;5112590;28;20051;-76
2022/01/11 10:49:36;;;;;;;15.90;7.88;;;;;;;;;;5112514;28;20027;-79
2022/01/11 10:52:15;;;;;;;13.18;7.93;;;;;;;;;;5112545;28;20535;-77
2022/01/11 10:54:42;;;;;;;16.48;8.05;;;;;;;;;;5111832;28;20069;-78
2022/01/11 10:57:36;;;;;;;12.70;8.73;;;;;;;;;;5093549;28;20043;-77
2022/01/11 11:00:19;;;;;;;13.48;7.57;;;;;;;;;;5091147;28;20080;-76
2022/01/11 11:02:49;;;;;;;15.93;10.55;;;;;;;;;;5112329;28;20433;-79
2022/01/11 11:05:20;;;;;;;18.40;10.88;;;;;;;;;;5094342;28;20023;-80
2022/01/11 11:08:01;;;;;;;14.85;9.13;;;;;;;;;;5119680;27;20019;-81
2022/01/11 11:10:30;;;;;;;17.38;10.05;;;;;;;;;;5110304;27;20036;-80
2022/01/11 11:12:56;;;;;;;16.77;9.40;;;;;;;;;;5093898;28;20024;-80
2022/01/11 11:15:33;;;;;;;19.17;9.07;;;;;;;;;;5111870;28;20026;-80
2022/01/11 11:17:59;;;;;;;17.30;9.63;;;;;;;;;;5112076;28;20059;-80
2022/01/11 11:20:25;;;;;;;21.55;9.80;;;;;;;;;;5111766;28;20020;-80
2022/01/11 11:22:52;;;;;;;24.35;11.63;;;;;;;;;;5111295;28;20028;-80
2022/01/11 11:25:18;;;;;;;33.40;13.13;;;;;;;;;;5110979;28;20037;-78
2022/01/11 11:27:44;;;;;;;36.67;11.95;;;;;;;;;;5108987;28;20065;-78
2022/01/11 11:30:10;;;;;;;34.85;12.68;;;;;;;;;;5116192;27;20050;-78
2022/01/11 11:32:37;;;;;;;33.30;11.60;;;;;;;;;;5120088;27;20054;-79
2022/01/11 11:35:03;;;;;;;27.05;11.68;;;;;;;;;;5101575;28;20019;-80
2022/01/11 11:37:34;;;;;;;25.77;10.18;;;;;;;;;;5121256;27;20027;-79
2022/01/11 11:40:04;;;;;;;23.95;11.38;;;;;;;;;;5120213;27;20019;-79
2022/01/11 11:42:31;;;;;;;23.92;10.13;;;;;;;;;;5112861;27;20153;-79
2022/01/11 11:44:58;;;;;;;25.42;10.13;;;;;;;;;;5110986;28;20502;-79
2022/01/11 11:47:30;;;;;;;21.35;10.63;;;;;;;;;;5110650;28;20020;-79
2022/01/11 11:49:56;;;;;;;20.67;9.70;;;;;;;;;;5110977;28;20027;-78
2022/01/11 11:52:28;;;;;;;20.02;10.88;;;;;;;;;;5110363;28;20106;-81
2022/01/11 11:54:59;;;;;;;21.92;10.60;;;;;;;;;;5093440;28;20035;-78
2022/01/11 11:57:26;;;;;;;19.23;9.65;;;;;;;;;;5093097;28;20491;-78
2022/01/11 11:59:54;;;;;;;25.67;11.52;;;;;;;;;;5111149;28;20039;-81
2022/01/11 12:02:38;;;;;;;18.85;9.68;;;;;;;;;;5110426;28;20096;-80
2022/01/11 12:05:05;;;;;;;19.52;9.98;;;;;;;;;;5110754;28;20016;-81
2022/01/11 12:07:33;;;;;;;27.38;10.70;;;;;;;;;;5091333;28;20054;-80
2022/01/11 12:10:00;;;;;;;20.35;9.70;;;;;;;;;;5091613;28;20019;-80
2022/01/11 12:12:41;;;;;;;15.77;9.68;;;;;;;;;;5109481;28;20503;-80
2022/01/11 12:15:22;;;;;;;21.65;9.73;;;;;;;;;;5088889;28;20028;-81
2022/01/11 12:17:49;;;;;;;19.40;9.93;;;;;;;;;;5107363;28;20574;-78
2022/01/11 12:20:34;;;;;;;26.65;10.80;;;;;;;;;;5109953;28;20043;-80
2022/01/11 12:23:00;;;;;;;21.83;11.07;;;;;;;;;;5105765;28;20020;-79
2022/01/11 12:25:29;;;;;;;18.95;10.43;;;;;;;;;;5124581;28;20019;-79
2022/01/11 12:28:00;;;;;;;31.98;11.45;;;;;;;;;;5098412;28;20118;-79
2022/01/11 12:30:26;;;;;;;18.95;10.75;;;;;;;;;;5110544;28;20043;-78
2022/01/11 12:33:11;;;;;;;20.02;10.15;;;;;;;;;;5109901;28;20035;-77
2022/01/11 12:35:56;;;;;;;17.48;10.52;;;;;;;;;;5109217;28;20146;-78
2022/01/11 12:38:23;;;;;;;14.32;8.35;;;;;;;;;;5110224;28;20506;-77
2022/01/11 12:40:49;;;;;;;15.75;9.20;;;;;;;;;;5111014;28;20024;-77
2022/01/11 12:43:18;;;;;;;16.25;8.57;;;;;;;;;;5111245;28;20532;-79
2022/01/11 12:46:02;;;;;;;17.58;9.07;;;;;;;;;;5111546;28;20030;-77
2022/01/11 12:48:48;;;;;;;20.08;9.50;;;;;;;;;;5110889;28;20024;-75
2022/01/11 12:51:25;;;;;;;16.95;9.48;;;;;;;;;;5113172;28;20031;-75
2022/01/11 12:54:10;;;;;;;19.58;9.70;;;;;;;;;;5114821;28;20042;-77
2022/01/11 12:56:36;;;;;;;15.23;8.73;;;;;;;;;;5114409;28;20037;-75
2022/01/11 12:59:03;;;;;;;15.15;8.40;;;;;;;;;;5114854;28;20094;-76
2022/01/11 13:01:29;;;;;;;14.60;7.97;;;;;;;;;;5114182;28;20027;-77
2022/01/11 13:03:57;;;;;;;14.73;7.60;;;;;;;;;;5112912;28;20026;-76
2022/01/11 13:06:23;;;;;;;13.70;7.75;;;;;;;;;;5096281;28;20028;-81
2022/01/11 13:08:56;;;;;;;12.85;7.65;;;;;;;;;;5114830;28;20023;-77
2022/01/11 13:11:22;;;;;;;11.68;7.43;;;;;;;;;;5114573;27;20586;-77
2022/01/11 13:13:57;;;;;;;12.88;7.65;;;;;;;;;;5096126;28;20023;-78
2022/01/11 13:16:23;;;;;;;10.85;7.22;;;;;;;;;;5096154;28;20441;-77
2022/01/11 13:18:49;;;;;;;11.57;7.85;;;;;;;;;;5114352;28;20102;-77
2022/01/11 13:21:20;;;;;;;13.73;7.82;;;;;;;;;;5096375;28;20027;-77
2022/01/11 13:23:59;;;;;;;9.05;6.22;;;;;;;;;;5114699;28;20047;-77
2022/01/11 13:26:26;;;;;;;10.88;6.70;;;;;;;;;;5114164;28;20058;-75
2022/01/11 13:28:56;;;;;;;9.70;6.05;;;;;;;;;;5096083;28;20070;-78
2022/01/11 13:31:24;;;;;;;11.00;5.88;;;;;;;;;;5113964;28;20030;-78
2022/01/11 13:34:02;;;;;;;12.93;6.90;;;;;;;;;;5114087;28;20012;-77
2022/01/11 13:36:35;;;;;;;13.07;6.90;;;;;;;;;;5113989;28;20546;-77
2022/01/11 13:39:22;;;;;;;8.30;6.00;;;;;;;;;;5114092;28;20030;-77
2022/01/11 13:41:58;;;;;;;13.00;6.40;;;;;;;;;;5114052;28;20023;-77
2022/01/11 13:44:26;;;;;;;10.85;6.43;;;;;;;;;;5113639;28;20552;-77
2022/01/11 13:46:56;;;;;;;10.68;6.15;;;;;;;;;;5114002;28;20066;-78
2022/01/11 13:49:24;;;;;;;9.13;6.10;;;;;;;;;;5113674;28;20095;-78
2022/01/11 13:51:51;;;;;;;10.07;6.05;;;;;;;;;;5095417;28;20051;-78
2022/01/11 13:54:18;;;;;;;10.50;6.20;;;;;;;;;;5113435;28;20031;-78
2022/01/11 13:56:45;;;;;;;10.45;5.63;;;;;;;;;;5113960;28;20042;-77
2022/01/11 13:59:13;;;;;;;12.45;5.97;;;;;;;;;;5113763;28;20445;-79
2022/01/11 14:01:39;;;;;;;10.18;6.18;;;;;;;;;;5094804;28;20023;-77
2022/01/11 14:04:06;;;;;;;9.30;5.93;;;;;;;;;;5112086;28;20027;-78
2022/01/11 14:06:42;;;;;;;11.27;5.95;;;;;;;;;;5109042;28;20022;-77
2022/01/11 14:09:12;;;;;;;10.68;5.68;;;;;;;;;;5111852;28;20019;-77
2022/01/11 14:11:40;;;;;;;11.63;5.68;;;;;;;;;;5112403;28;20731;-77
2022/01/11 14:14:07;;;;;;;9.38;5.75;;;;;;;;;;5112887;28;20032;-78
2022/01/11 14:16:41;;;;;;;9.93;5.72;;;;;;;;;;5112881;28;20046;-78
2022/01/11 14:19:10;;;;;;;9.75;5.97;;;;;;;;;;5112761;28;20027;-78
2022/01/11 14:21:53;;;;;;;6.25;4.63;;;;;;;;;;5112841;28;20031;-78
2022/01/11 14:24:19;;;;;;;10.95;6.20;;;;;;;;;;5112942;28;20078;-78
2022/01/11 14:26:46;;;;;;;7.43;5.10;;;;;;;;;;5113149;28;20024;-77
2022/01/11 14:29:21;;;;;;;10.95;5.57;;;;;;;;;;5112328;28;20035;-78
2022/01/11 14:32:07;;;;;;;8.00;4.95;;;;;;;;;;5112906;28;20072;-76
2022/01/11 14:34:33;;;;;;;8.93;5.38;;;;;;;;;;5093147;28;20148;-77
2022/01/11 14:37:15;;;;;;;8.95;5.07;;;;;;;;;;5111099;28;20027;-78
2022/01/11 14:39:41;;;;;;;6.70;4.38;;;;;;;;;;5108679;28;20031;-78
2022/01/11 14:42:07;;;;;;;8.50;4.60;;;;;;;;;;5093373;28;20036;-77
2022/01/11 14:44:34;;;;;;;8.98;4.38;;;;;;;;;;5110753;28;20510;-76